createdAt,value
2019-04-14T00:01:04.330Z,36.00
2019-04-14T00:03:37.567Z,35.13
2019-04-14T00:06:06.983Z,34.97
2019-04-14T00:08:35.532Z,35.73
2019-04-14T00:11:04.210Z,34.30
2019-04-14T00:13:32.842Z,37.70
2019-04-14T00:16:01.583Z,37.63
2019-04-14T00:18:30.082Z,39.03
2019-04-14T00:20:59.769Z,39.70
2019-04-14T00:23:28.359Z,41.53
2019-04-14T00:26:16.713Z,39.17
2019-04-14T00:28:45.431Z,38.23
2019-04-14T00:31:13.890Z,40.70
2019-04-14T00:33:43.438Z,33.67
2019-04-14T00:36:16.166Z,41.13
2019-04-14T00:38:46.219Z,40.27
2019-04-14T00:41:20.165Z,37.90
2019-04-14T00:43:57.010Z,39.40
2019-04-14T00:46:45.304Z,39.47
2019-04-14T00:49:13.974Z,34.73
2019-04-14T00:51:42.508Z,37.70
2019-04-14T00:54:11.271Z,41.93
2019-04-14T00:56:41.085Z,38.97
2019-04-14T00:59:09.626Z,44.60
2019-04-14T01:01:39.404Z,39.30
2019-04-14T01:04:08.038Z,41.03
2019-04-14T01:06:36.763Z,36.93
2019-04-14T01:09:08.589Z,36.40
2019-04-14T01:11:37.870Z,34.73
2019-04-14T01:14:06.347Z,40.53
2019-04-14T01:16:34.752Z,34.20
2019-04-14T01:19:03.270Z,38.40
2019-04-14T01:21:32.716Z,35.43
2019-04-14T01:24:01.387Z,39.90
2019-04-14T01:26:30.969Z,36.93
2019-04-14T01:28:59.562Z,38.17
2019-04-14T01:31:28.021Z,38.23
2019-04-14T01:33:57.550Z,38.40
2019-04-14T01:36:26.173Z,39.90
2019-04-14T01:38:55.643Z,41.13
2019-04-14T01:41:24.113Z,39.57
2019-04-14T01:43:53.798Z,40.13
2019-04-14T01:46:27.683Z,42.13
2019-04-14T01:48:52.459Z,38.17
2019-04-14T01:51:39.609Z,39.67
2019-04-14T01:54:25.976Z,40.73
2019-04-14T01:56:56.014Z,38.00
2019-04-14T01:59:24.428Z,40.13
2019-04-14T02:01:54.485Z,37.10
2019-04-14T02:04:22.903Z,36.90
2019-04-14T02:06:52.615Z,39.50
2019-04-14T02:09:21.296Z,42.30
2019-04-14T02:11:50.937Z,37.50
2019-04-14T02:14:19.550Z,41.80
2019-04-14T02:16:52.612Z,39.53
2019-04-14T02:19:18.116Z,40.37
2019-04-14T02:21:47.678Z,40.33
2019-04-14T02:24:17.711Z,40.50
2019-04-14T02:26:46.222Z,37.07
2019-04-14T02:29:14.634Z,39.30
2019-04-14T02:32:11.224Z,39.30
2019-04-14T02:34:40.112Z,39.43
2019-04-14T02:37:12.458Z,37.37
2019-04-14T02:39:46.657Z,40.73
2019-04-14T02:42:19.437Z,38.97
2019-04-14T02:47:18.158Z,37.30
2019-04-14T02:49:44.133Z,33.60
2019-04-14T02:52:16.539Z,39.67
2019-04-14T02:54:51.751Z,38.20
2019-04-14T02:57:26.775Z,37.40
2019-04-14T02:59:44.618Z,39.27
2019-04-14T03:04:44.869Z,41.33
2019-04-14T03:07:16.195Z,38.80
2019-04-14T03:12:09.683Z,40.83
2019-04-14T03:17:21.410Z,37.27
2019-04-14T03:22:37.793Z,38.40
2019-04-14T03:25:08.139Z,36.57
2019-04-14T03:30:51.684Z,42.13
2019-04-14T03:33:27.402Z,36.93
2019-04-14T03:35:51.881Z,42.13
2019-04-14T03:37:56.649Z,40.03
2019-04-14T03:40:25.902Z,38.83
2019-04-14T03:42:59.006Z,38.43
2019-04-14T03:45:25.657Z,38.10
2019-04-14T03:48:02.048Z,39.83
2019-04-14T03:50:21.728Z,37.03
2019-04-14T03:52:56.181Z,39.03
2019-04-14T03:55:11.470Z,40.53
2019-04-14T03:57:29.645Z,39.97
2019-04-14T03:59:58.630Z,36.30
2019-04-14T04:02:27.239Z,39.23
2019-04-14T04:04:55.608Z,39.07
2019-04-14T04:07:24.015Z,39.03
2019-04-14T04:09:54.144Z,37.50
2019-04-14T04:12:22.666Z,38.83
2019-04-14T04:14:51.133Z,35.77
2019-04-14T04:17:34.191Z,38.63
2019-04-14T04:20:19.692Z,33.93
2019-04-14T04:23:09.469Z,40.23
2019-04-14T04:25:39.959Z,38.03
2019-04-14T04:28:23.110Z,41.27
2019-04-14T04:30:53.690Z,36.70
2019-04-14T04:33:24.232Z,33.70
2019-04-14T04:36:20.332Z,36.20
2019-04-14T04:38:53.574Z,35.03
2019-04-14T04:41:23.173Z,37.60
2019-04-14T04:43:51.866Z,39.73
2019-04-14T04:46:20.275Z,36.83
2019-04-14T04:49:02.021Z,34.30
2019-04-14T04:51:18.787Z,35.73
2019-04-14T04:53:48.141Z,35.10
2019-04-14T04:56:16.764Z,32.73
2019-04-14T04:58:45.645Z,33.63
2019-04-14T05:01:14.498Z,32.80
2019-04-14T05:03:42.917Z,34.67
2019-04-14T05:06:48.380Z,35.70
2019-04-14T05:09:36.906Z,35.20
2019-04-14T05:12:11.013Z,34.80
2019-04-14T05:14:41.249Z,31.53
2019-04-14T05:17:10.202Z,32.70
2019-04-14T05:19:40.379Z,34.60
2019-04-14T05:22:09.284Z,33.87
2019-04-14T05:24:37.739Z,31.60
2019-04-14T05:27:06.282Z,33.87
2019-04-14T05:29:34.713Z,33.00
2019-04-14T05:32:03.140Z,32.00
2019-04-14T05:34:32.855Z,33.77
2019-04-14T05:37:01.248Z,33.43
2019-04-14T05:39:30.693Z,31.60
2019-04-14T05:42:06.584Z,28.63
2019-04-14T05:44:29.677Z,28.37
2019-04-14T05:46:58.173Z,28.80
2019-04-14T05:49:33.928Z,33.97
2019-04-14T05:51:56.707Z,29.10
2019-04-14T05:54:25.296Z,32.40
2019-04-14T05:56:53.790Z,31.10
2019-04-14T05:59:22.634Z,32.27
2019-04-14T06:01:51.123Z,29.07
2019-04-14T06:04:20.046Z,29.10
2019-04-14T06:06:48.584Z,33.03
2019-04-14T06:09:16.989Z,29.83
2019-04-14T06:11:45.650Z,32.23
2019-04-14T06:14:14.107Z,31.40
2019-04-14T06:16:42.655Z,32.17
2019-04-14T06:19:11.189Z,32.67
2019-04-14T06:21:39.582Z,29.40
2019-04-14T06:24:08.198Z,31.27
2019-04-14T06:26:36.614Z,27.07
2019-04-14T06:29:05.014Z,30.87
2019-04-14T06:31:35.073Z,31.30
2019-04-14T06:34:20.535Z,31.60
2019-04-14T06:36:59.506Z,30.17
2019-04-14T06:39:32.037Z,32.77
2019-04-14T06:42:01.413Z,35.20
2019-04-14T06:44:30.016Z,35.77
2019-04-14T06:46:58.421Z,30.93
2019-04-14T06:49:26.842Z,33.80
2019-04-14T06:51:55.254Z,33.10
2019-04-14T06:54:23.947Z,36.67
2019-04-14T06:56:52.398Z,33.90
2019-04-14T06:59:20.921Z,33.13
2019-04-14T07:01:49.374Z,31.97
2019-04-14T07:04:17.851Z,33.30
2019-04-14T07:06:46.314Z,31.70
2019-04-14T07:09:14.758Z,31.17
2019-04-14T07:11:43.238Z,32.20
2019-04-14T07:14:14.159Z,31.30
2019-04-14T07:16:42.596Z,32.50
2019-04-14T07:19:11.053Z,32.80
2019-04-14T07:21:39.614Z,30.00
2019-04-14T07:24:08.137Z,31.33
2019-04-14T07:26:36.599Z,29.77
2019-04-14T07:29:05.075Z,30.20
2019-04-14T07:31:35.169Z,30.67
2019-04-14T07:34:22.015Z,28.97
2019-04-14T07:36:52.122Z,29.07
2019-04-14T07:39:37.224Z,29.40
2019-04-14T07:42:24.830Z,34.97
2019-04-14T07:45:13.160Z,30.87
2019-04-14T07:50:56.454Z,28.70
2019-04-14T07:53:41.478Z,28.33
2019-04-14T07:56:29.623Z,28.73
2019-04-14T07:59:02.840Z,29.67
2019-04-14T08:01:32.982Z,30.00
2019-04-14T08:04:03.049Z,28.67
2019-04-14T08:06:32.202Z,29.17
2019-04-14T08:09:01.661Z,30.97
2019-04-14T08:11:30.087Z,27.73
2019-04-14T08:13:59.362Z,28.10
2019-04-14T08:16:28.030Z,29.30
2019-04-14T08:18:56.545Z,27.37
2019-04-14T08:21:24.980Z,29.53
2019-04-14T08:23:53.413Z,28.57
2019-04-14T08:26:22.807Z,30.67
2019-04-14T08:28:51.427Z,29.90
2019-04-14T08:31:19.819Z,32.00
2019-04-14T08:33:48.230Z,28.97
2019-04-14T08:36:16.710Z,29.13
2019-04-14T08:38:45.110Z,30.20
2019-04-14T08:41:13.535Z,28.70
2019-04-14T08:43:43.675Z,29.77
2019-04-14T08:46:20.114Z,27.53
2019-04-14T08:48:52.758Z,27.80
2019-04-14T08:51:28.674Z,27.97
2019-04-14T08:54:16.491Z,29.03
2019-04-14T08:56:51.669Z,30.17
2019-04-14T08:59:34.051Z,29.27
2019-04-14T09:02:06.839Z,27.03
2019-04-14T09:04:39.560Z,28.20
2019-04-14T09:07:25.862Z,28.57
2019-04-14T09:10:01.947Z,29.73
2019-04-14T09:12:31.991Z,28.23
2019-04-14T09:15:00.686Z,28.93
2019-04-14T09:17:30.670Z,29.33
2019-04-14T09:19:59.097Z,26.73
2019-04-14T09:22:27.557Z,30.43
2019-04-14T09:24:56.041Z,29.27
2019-04-14T09:27:24.667Z,29.93
2019-04-14T09:29:53.170Z,24.33
2019-04-14T09:32:22.037Z,25.03
2019-04-14T09:34:50.434Z,29.47
2019-04-14T09:37:18.948Z,29.27
2019-04-14T09:39:47.659Z,27.67
2019-04-14T09:42:16.122Z,29.40
2019-04-14T09:44:50.790Z,29.83
2019-04-14T09:47:19.217Z,29.40
2019-04-14T09:49:47.625Z,28.53
2019-04-14T09:52:16.045Z,27.67
2019-04-14T09:54:44.500Z,28.00
2019-04-14T09:57:13.176Z,28.37
2019-04-14T09:59:41.638Z,28.60
2019-04-14T10:02:10.069Z,30.20
2019-04-14T10:04:38.621Z,28.83
2019-04-14T10:07:07.037Z,27.90
2019-04-14T10:09:35.529Z,28.30
2019-04-14T10:12:04.135Z,28.67
2019-04-14T10:14:32.556Z,28.10
2019-04-14T10:17:01.491Z,29.93
2019-04-14T10:19:30.239Z,26.93
2019-04-14T10:21:58.724Z,28.00
2019-04-14T10:24:27.128Z,29.03
2019-04-14T10:26:55.520Z,28.43
2019-04-14T10:29:23.953Z,27.13
2019-04-14T10:31:52.396Z,26.23
2019-04-14T10:34:20.795Z,25.87
2019-04-14T10:36:49.204Z,27.13
2019-04-14T10:39:17.620Z,27.97
2019-04-14T10:41:46.111Z,30.10
2019-04-14T10:44:14.531Z,28.17
2019-04-14T10:46:42.943Z,27.33
2019-04-14T10:49:11.344Z,28.93
2019-04-14T10:51:39.762Z,29.80
2019-04-14T10:54:08.167Z,29.23
2019-04-14T10:56:36.626Z,26.80
2019-04-14T10:59:05.194Z,28.20
2019-04-14T11:01:33.666Z,28.30
2019-04-14T11:04:02.126Z,29.60
2019-04-14T11:06:32.214Z,26.00
2019-04-14T11:09:00.624Z,28.47
2019-04-14T11:11:29.036Z,29.73
2019-04-14T11:13:57.478Z,29.13
2019-04-14T11:16:25.897Z,28.13
2019-04-14T11:18:54.298Z,28.47
2019-04-14T11:21:22.963Z,32.40
2019-04-14T11:23:51.360Z,28.60
2019-04-14T11:26:19.764Z,27.00
2019-04-14T11:28:48.179Z,27.63
2019-04-14T11:31:18.395Z,29.30
2019-04-14T11:33:59.894Z,29.87
2019-04-14T11:36:39.082Z,27.60
2019-04-14T11:39:09.145Z,29.07
2019-04-14T11:41:37.814Z,33.57
2019-04-14T11:44:06.389Z,31.57
2019-04-14T11:46:34.786Z,28.03
2019-04-14T11:49:03.299Z,28.73
2019-04-14T11:51:31.769Z,28.77
2019-04-14T11:54:00.738Z,29.07
2019-04-14T11:56:29.165Z,27.43
2019-04-14T11:58:57.688Z,26.47
2019-04-14T12:01:44.045Z,30.23
2019-04-14T12:04:25.966Z,28.40
2019-04-14T12:07:13.347Z,27.00
2019-04-14T12:09:43.383Z,32.73
2019-04-14T12:12:11.818Z,28.43
2019-04-14T12:14:40.239Z,32.07
2019-04-14T12:17:08.705Z,28.90
2019-04-14T12:19:37.156Z,24.10
2019-04-14T12:22:08.380Z,26.53
2019-04-14T12:24:35.911Z,25.57
2019-04-14T12:27:04.569Z,29.00
2019-04-14T12:29:32.966Z,27.93
2019-04-14T12:32:01.767Z,29.20
2019-04-14T12:34:30.350Z,25.63
2019-04-14T12:36:58.879Z,26.80
2019-04-14T12:39:27.254Z,27.13
2019-04-14T12:42:06.761Z,25.47
2019-04-14T12:44:39.535Z,26.57
2019-04-14T12:47:25.667Z,22.00
2019-04-14T12:50:12.218Z,22.20
2019-04-14T12:52:40.630Z,20.87
2019-04-14T12:55:09.202Z,21.77
2019-04-14T12:57:39.495Z,22.53
2019-04-14T13:00:10.000Z,22.57
2019-04-14T13:02:40.052Z,22.57
2019-04-14T13:05:09.200Z,19.33
2019-04-14T13:07:37.601Z,18.97
2019-04-14T13:10:07.797Z,18.17
2019-04-14T13:12:36.198Z,18.93
2019-04-14T13:15:06.349Z,18.77
2019-04-14T13:17:34.770Z,17.03
2019-04-14T13:20:05.189Z,17.63
2019-04-14T13:22:34.446Z,20.37
2019-04-14T13:25:03.503Z,15.60
2019-04-14T13:27:31.975Z,16.30
2019-04-14T13:30:00.458Z,16.87
2019-04-14T13:32:35.972Z,17.77
2019-04-14T13:34:59.105Z,15.87
2019-04-14T13:37:27.763Z,18.07
2019-04-14T13:39:56.224Z,16.27
2019-04-14T13:42:24.880Z,17.57
2019-04-14T13:44:53.322Z,16.27
2019-04-14T13:47:21.761Z,15.97
2019-04-14T13:49:50.165Z,17.37
2019-04-14T13:52:18.590Z,20.47
2019-04-14T13:54:47.037Z,19.40
2019-04-14T13:57:15.588Z,19.03
2019-04-14T13:59:44.223Z,16.87
2019-04-14T14:02:12.768Z,20.63
2019-04-14T14:04:41.198Z,18.30
2019-04-14T14:07:09.772Z,18.90
2019-04-14T14:09:38.160Z,16.57
2019-04-14T14:12:14.191Z,16.63
2019-04-14T14:14:44.313Z,17.97
2019-04-14T14:17:17.350Z,18.03
2019-04-14T14:19:59.262Z,16.27
2019-04-14T14:22:29.350Z,17.33
2019-04-14T14:25:02.485Z,15.53
2019-04-14T14:27:30.887Z,17.97
2019-04-14T14:29:59.300Z,18.67
2019-04-14T14:32:29.339Z,17.37
2019-04-14T14:34:57.745Z,20.03
2019-04-14T14:37:26.165Z,19.10
2019-04-14T14:39:54.562Z,19.47
2019-04-14T14:42:22.969Z,17.17
2019-04-14T14:44:53.023Z,17.70
2019-04-14T14:47:25.858Z,17.93
2019-04-14T14:49:58.642Z,16.20
2019-04-14T14:52:27.986Z,20.03
2019-04-14T14:54:56.393Z,15.07
2019-04-14T14:57:24.865Z,17.93
2019-04-14T14:59:53.306Z,18.20
2019-04-14T15:02:21.898Z,16.90
2019-04-14T15:04:50.294Z,19.17
2019-04-14T15:07:18.711Z,16.03
2019-04-14T15:09:47.165Z,18.10
2019-04-14T15:12:15.585Z,17.47
2019-04-14T15:14:44.039Z,17.40
2019-04-14T15:17:12.535Z,18.47
2019-04-14T15:19:40.942Z,16.60
2019-04-14T15:22:13.321Z,18.07
2019-04-14T15:24:41.794Z,16.40
2019-04-14T15:27:10.576Z,16.87
2019-04-14T15:29:39.054Z,17.27
2019-04-14T15:32:07.486Z,16.47
2019-04-14T15:34:35.886Z,18.07
2019-04-14T15:37:04.354Z,18.17
2019-04-14T15:39:32.932Z,18.33
2019-04-14T15:42:01.367Z,15.60
2019-04-14T15:44:29.766Z,19.97
2019-04-14T15:46:58.230Z,17.00
2019-04-14T15:49:26.674Z,18.80
2019-04-14T15:51:55.071Z,18.37
2019-04-14T15:54:25.413Z,20.33
2019-04-14T15:57:07.563Z,19.73
2019-04-14T15:59:53.832Z,20.87
2019-04-14T16:02:32.865Z,19.23
2019-04-14T16:05:02.924Z,16.67
2019-04-14T16:07:33.009Z,18.33
2019-04-14T16:10:15.389Z,20.03
2019-04-14T16:12:48.359Z,19.10
2019-04-14T16:15:21.106Z,18.17
2019-04-14T16:17:51.160Z,16.93
2019-04-14T16:20:27.178Z,16.67
2019-04-14T16:22:55.596Z,24.60
2019-04-14T16:25:25.630Z,14.53
2019-04-14T16:27:58.522Z,15.13
2019-04-14T16:30:43.637Z,16.77
2019-04-14T16:33:16.415Z,17.67
2019-04-14T16:35:46.360Z,18.10
2019-04-14T16:38:14.840Z,17.47
2019-04-14T16:40:43.279Z,20.23
2019-04-14T16:43:11.782Z,18.30
2019-04-14T16:45:40.191Z,17.43
2019-04-14T16:48:08.611Z,17.37
2019-04-14T16:50:37.031Z,16.77
2019-04-14T16:53:07.142Z,17.77
2019-04-14T16:55:41.258Z,18.57
2019-04-14T16:58:11.422Z,16.93
2019-04-14T17:00:41.459Z,17.33
2019-04-14T17:03:09.929Z,18.03
2019-04-14T17:05:39.151Z,16.00
2019-04-14T17:08:07.783Z,13.70
2019-04-14T17:10:36.175Z,14.60
2019-04-14T17:13:04.659Z,17.60
2019-04-14T17:15:34.715Z,14.50
2019-04-14T17:18:21.007Z,15.47
2019-04-14T17:20:51.055Z,14.87
2019-04-14T17:23:36.666Z,13.83
2019-04-14T17:26:06.750Z,13.50
2019-04-14T17:28:36.850Z,14.70
2019-04-14T17:31:21.987Z,14.57
2019-04-14T17:34:01.186Z,16.20
2019-04-14T17:36:40.055Z,16.03
2019-04-14T17:39:15.766Z,14.53
2019-04-14T17:41:48.698Z,15.83
2019-04-14T17:44:18.767Z,15.57
2019-04-14T17:47:05.285Z,13.17
2019-04-14T17:49:40.894Z,13.50
2019-04-14T17:52:28.820Z,13.70
2019-04-14T17:54:58.881Z,12.77
2019-04-14T17:57:28.896Z,13.80
2019-04-14T18:00:01.727Z,14.07
2019-04-14T18:02:40.691Z,15.73
2019-04-14T18:05:10.886Z,13.10
2019-04-14T18:07:40.920Z,14.47
2019-04-14T18:10:20.073Z,16.60
2019-04-14T18:12:52.930Z,14.70
2019-04-14T18:15:32.444Z,14.73
2019-04-14T18:18:08.402Z,15.17
2019-04-14T18:20:41.281Z,15.30
2019-04-14T18:23:09.668Z,17.00
2019-04-14T18:25:38.063Z,13.87
2019-04-14T18:28:08.286Z,12.97
2019-04-14T18:30:38.643Z,14.43
2019-04-14T18:33:08.777Z,15.20
2019-04-14T18:35:54.073Z,17.10
2019-04-14T18:38:30.295Z,15.67
2019-04-14T18:41:03.054Z,15.57
2019-04-14T18:43:36.253Z,18.13
2019-04-14T18:46:12.119Z,16.00
2019-04-14T18:48:42.378Z,18.27
2019-04-14T18:51:15.240Z,18.70
2019-04-14T18:54:03.246Z,16.60
2019-04-14T18:56:42.338Z,15.93
2019-04-14T18:59:18.399Z,16.23
2019-04-14T19:01:48.614Z,12.80
2019-04-14T19:04:17.156Z,15.63
2019-04-14T19:06:45.547Z,15.47
2019-04-14T19:09:14.038Z,17.17
2019-04-14T19:11:53.194Z,15.97
2019-04-14T19:14:23.262Z,16.47
2019-04-14T19:16:53.360Z,15.33
2019-04-14T19:19:23.342Z,18.00
2019-04-14T19:21:51.860Z,16.87
2019-04-14T19:24:20.286Z,18.47
2019-04-14T19:26:48.661Z,16.43
2019-04-14T19:29:17.051Z,17.93
2019-04-14T19:31:45.651Z,18.93
2019-04-14T19:34:14.051Z,19.50
2019-04-14T19:36:42.446Z,20.17
2019-04-14T19:39:10.924Z,21.23
2019-04-14T19:41:39.669Z,19.37
2019-04-14T19:44:08.078Z,18.07
2019-04-14T19:46:36.483Z,20.90
2019-04-14T19:49:04.911Z,19.97
2019-04-14T19:51:33.309Z,21.33
2019-04-14T19:54:01.862Z,20.23
2019-04-14T19:56:30.363Z,19.13
2019-04-14T19:58:58.846Z,21.63
2019-04-14T20:01:27.330Z,20.33
2019-04-14T20:03:55.907Z,19.67
2019-04-14T20:06:24.415Z,19.77
2019-04-14T20:08:52.806Z,20.47
2019-04-14T20:11:21.275Z,17.77
2019-04-14T20:13:49.931Z,19.57
2019-04-14T20:16:36.534Z,20.03
2019-04-14T20:19:15.814Z,19.47
2019-04-14T20:21:48.773Z,17.80
2019-04-14T20:24:18.816Z,19.10
2019-04-14T20:26:57.666Z,22.27
2019-04-14T20:29:30.673Z,16.93
2019-04-14T20:32:06.813Z,23.00
2019-04-14T20:34:35.238Z,19.07
2019-04-14T20:37:03.713Z,23.27
2019-04-14T20:39:32.878Z,19.60
2019-04-14T20:42:01.279Z,17.77
2019-04-14T20:44:29.751Z,23.83
2019-04-14T20:46:58.232Z,20.77
2019-04-14T20:49:27.618Z,27.90
2019-04-14T20:51:56.035Z,21.70
2019-04-14T20:54:24.508Z,21.07
2019-04-14T20:56:52.919Z,18.77
2019-04-14T20:59:21.342Z,21.33
2019-04-14T21:01:51.390Z,21.27
2019-04-14T21:04:33.797Z,19.67
2019-04-14T21:07:12.678Z,19.67
2019-04-14T21:09:48.770Z,18.30
2019-04-14T21:12:30.461Z,17.33
2019-04-14T21:15:15.619Z,17.70
2019-04-14T21:17:45.646Z,15.10
2019-04-14T21:20:15.735Z,17.97
2019-04-14T21:22:51.819Z,16.97
2019-04-14T21:25:36.687Z,16.13
2019-04-14T21:28:09.266Z,15.17
2019-04-14T21:30:39.329Z,14.33
2019-04-14T21:33:12.350Z,13.40
2019-04-14T21:35:59.015Z,17.33
2019-04-14T21:38:41.411Z,13.90
2019-04-14T21:41:11.450Z,15.27
2019-04-14T21:43:39.851Z,15.07
2019-04-14T21:46:08.326Z,14.60
2019-04-14T21:48:36.710Z,15.33
2019-04-14T21:51:05.154Z,16.97
2019-04-14T21:53:33.573Z,16.23
2019-04-14T21:56:12.870Z,15.77
2019-04-14T21:58:33.782Z,15.20
2019-04-14T22:01:35.047Z,15.60
2019-04-14T22:04:05.146Z,12.30
2019-04-14T22:06:47.432Z,16.43
2019-04-14T22:09:17.523Z,18.23
2019-04-14T22:11:46.050Z,15.07
2019-04-14T22:14:14.475Z,17.17
2019-04-14T22:16:42.883Z,17.90
2019-04-14T22:19:11.339Z,12.90
2019-04-14T22:21:39.729Z,16.57
2019-04-14T22:24:08.214Z,16.80
2019-04-14T22:26:36.590Z,16.93
2019-04-14T22:29:05.081Z,13.70
2019-04-14T22:31:33.483Z,14.17
2019-04-14T22:34:02.084Z,16.30
2019-04-14T22:36:30.497Z,15.13
2019-04-14T22:38:58.886Z,19.20
2019-04-14T22:41:27.310Z,14.27
2019-04-14T22:43:55.778Z,14.23
2019-04-14T22:46:24.237Z,17.63
2019-04-14T22:48:52.866Z,16.70
2019-04-14T22:51:21.318Z,16.00
2019-04-14T22:53:50.051Z,14.53
2019-04-14T22:56:18.458Z,16.63
2019-04-14T22:58:46.947Z,17.53
2019-04-14T23:01:22.983Z,16.23
2019-04-14T23:03:59.338Z,19.80
2019-04-14T23:06:35.374Z,25.97
2019-04-14T23:09:18.639Z,22.93
2019-04-14T23:11:48.686Z,26.17
2019-04-14T23:14:27.728Z,24.00
2019-04-14T23:17:14.193Z,25.13
2019-04-14T23:19:44.243Z,23.67
2019-04-14T23:22:23.502Z,22.87
2019-04-14T23:24:51.894Z,23.57
2019-04-14T23:27:20.291Z,20.33
2019-04-14T23:29:48.751Z,22.47
2019-04-14T23:32:17.146Z,19.87
2019-04-14T23:35:05.970Z,23.07
2019-04-14T23:37:34.736Z,20.53
2019-04-14T23:40:04.133Z,25.17
2019-04-14T23:42:32.662Z,20.87
2019-04-14T23:45:01.061Z,19.07
2019-04-14T23:47:29.513Z,18.73
2019-04-14T23:49:57.956Z,18.20
2019-04-14T23:52:26.421Z,19.50
2019-04-14T23:54:54.975Z,20.13
2019-04-14T23:57:23.332Z,17.20
2019-04-14T23:59:51.737Z,18.37
